createdAt,value
2023-01-31T00:01:52.444Z,2.20
2023-01-31T00:06:51.600Z,2.50
2023-01-31T00:09:19.542Z,2.50
2023-01-31T00:14:19.297Z,2.60
2023-01-31T00:16:46.878Z,3.20
2023-01-31T00:19:14.148Z,2.50
2023-01-31T00:21:43.730Z,2.80
2023-01-31T00:24:15.334Z,2.40
2023-01-31T00:26:43.132Z,2.50
2023-01-31T00:29:11.040Z,2.70
2023-01-31T00:31:39.144Z,2.70
2023-01-31T00:34:07.590Z,2.80
2023-01-31T00:36:35.986Z,2.50
2023-01-31T00:39:06.134Z,2.90
2023-01-31T00:41:34.638Z,2.60
2023-01-31T00:44:02.318Z,2.60
2023-01-31T00:46:31.469Z,2.80
2023-01-31T00:48:59.425Z,2.60
2023-01-31T00:51:27.068Z,3.40
2023-01-31T00:53:55.150Z,2.50
2023-01-31T00:56:24.035Z,2.60
2023-01-31T00:58:52.107Z,2.50
2023-01-31T01:01:26.241Z,2.30
2023-01-31T01:03:55.202Z,2.40
2023-01-31T01:06:23.300Z,2.10
2023-01-31T01:08:52.141Z,2.20
2023-01-31T01:11:27.912Z,2.00
2023-01-31T01:13:56.403Z,2.30
2023-01-31T01:16:26.275Z,2.50
2023-01-31T01:18:55.174Z,2.60
2023-01-31T01:21:24.730Z,2.40
2023-01-31T01:23:53.561Z,2.40
2023-01-31T01:26:25.301Z,1.90
2023-01-31T01:28:54.489Z,2.20
2023-01-31T01:31:21.987Z,2.00
2023-01-31T01:33:49.953Z,2.00
2023-01-31T01:36:22.086Z,2.40
2023-01-31T01:38:49.788Z,2.20
2023-01-31T01:41:17.157Z,2.10
2023-01-31T01:43:56.312Z,2.10
2023-01-31T01:46:42.558Z,2.20
2023-01-31T01:49:31.221Z,2.20
2023-01-31T01:52:02.596Z,2.40
2023-01-31T01:54:50.164Z,2.50
2023-01-31T01:57:20.878Z,1.90
2023-01-31T02:00:13.773Z,2.60
2023-01-31T02:02:46.180Z,2.70
2023-01-31T02:05:20.209Z,2.30
2023-01-31T02:07:47.712Z,3.50
2023-01-31T02:10:30.269Z,2.60
2023-01-31T02:12:57.840Z,2.40
2023-01-31T02:15:25.929Z,2.80
2023-01-31T02:17:54.174Z,2.60
2023-01-31T02:20:34.373Z,2.60
2023-01-31T02:23:29.209Z,2.60
2023-01-31T02:26:22.020Z,2.90
2023-01-31T02:29:07.641Z,2.50
2023-01-31T02:31:37.930Z,2.50
2023-01-31T02:34:35.405Z,3.10
2023-01-31T02:37:23.205Z,2.60
2023-01-31T02:39:59.849Z,3.00
2023-01-31T02:42:39.051Z,2.90
2023-01-31T02:45:28.031Z,2.70
2023-01-31T02:48:12.670Z,2.10
2023-01-31T02:51:00.359Z,2.80
2023-01-31T02:53:42.659Z,2.70
2023-01-31T02:56:20.356Z,2.70
2023-01-31T02:58:56.600Z,2.80
2023-01-31T03:01:29.636Z,2.80
2023-01-31T03:04:11.851Z,2.70
2023-01-31T03:07:00.290Z,3.00
2023-01-31T03:09:45.450Z,2.80
2023-01-31T03:12:34.010Z,2.80
2023-01-31T03:15:27.637Z,2.60
2023-01-31T03:18:06.019Z,2.90
2023-01-31T03:20:43.682Z,2.40
2023-01-31T03:23:29.539Z,2.60
2023-01-31T03:25:59.335Z,2.70
2023-01-31T03:28:30.494Z,2.50
2023-01-31T03:31:10.994Z,2.70
2023-01-31T03:33:43.451Z,2.80
2023-01-31T03:36:50.742Z,3.00
2023-01-31T03:39:59.206Z,2.90
2023-01-31T03:42:52.725Z,2.70
2023-01-31T03:45:32.970Z,3.00
2023-01-31T03:48:03.621Z,3.10
2023-01-31T03:50:39.503Z,2.80
2023-01-31T03:53:14.175Z,2.50
2023-01-31T03:56:04.660Z,2.70
2023-01-31T03:58:38.631Z,3.10
2023-01-31T04:01:09.915Z,2.80
2023-01-31T04:03:47.776Z,2.60
2023-01-31T04:06:15.407Z,2.80
2023-01-31T04:08:44.074Z,2.80
2023-01-31T04:11:14.109Z,2.80
2023-01-31T04:13:42.750Z,2.80
2023-01-31T04:16:09.891Z,2.80
2023-01-31T04:18:38.604Z,3.00
2023-01-31T04:21:05.932Z,2.70
2023-01-31T04:23:33.440Z,2.90
2023-01-31T04:26:02.454Z,2.90
2023-01-31T04:30:57.842Z,2.70
2023-01-31T04:35:52.775Z,2.80
2023-01-31T04:38:20.182Z,2.80
2023-01-31T04:40:47.464Z,2.50
2023-01-31T04:43:15.003Z,2.60
2023-01-31T04:45:42.195Z,2.50
2023-01-31T04:48:10.010Z,2.60
2023-01-31T04:50:37.111Z,2.70
2023-01-31T04:53:04.928Z,3.00
2023-01-31T04:55:32.032Z,3.00
2023-01-31T04:57:59.407Z,2.50
2023-01-31T05:00:26.511Z,3.00
2023-01-31T05:02:54.151Z,2.10
2023-01-31T05:05:21.754Z,2.80
2023-01-31T05:07:49.183Z,2.70
2023-01-31T05:10:16.411Z,2.90
2023-01-31T05:12:43.749Z,2.80
2023-01-31T05:15:11.782Z,2.30
2023-01-31T05:17:39.072Z,2.80
2023-01-31T05:20:07.049Z,2.80
2023-01-31T05:25:01.861Z,2.50
2023-01-31T05:34:52.049Z,2.60
2023-01-31T05:37:19.533Z,2.50
2023-01-31T05:39:46.559Z,2.80
2023-01-31T05:42:13.861Z,2.70
2023-01-31T05:44:40.840Z,2.80
2023-01-31T05:47:08.220Z,2.70
2023-01-31T05:49:35.545Z,2.50
2023-01-31T05:52:03.349Z,2.80
2023-01-31T05:54:30.381Z,2.70
2023-01-31T05:56:57.740Z,2.70
2023-01-31T05:59:26.396Z,2.70
2023-01-31T06:01:54.501Z,2.70
2023-01-31T06:04:21.701Z,2.60
2023-01-31T06:06:48.935Z,2.60
2023-01-31T06:09:16.103Z,2.40
2023-01-31T06:11:44.628Z,2.60
2023-01-31T06:14:11.661Z,2.80
2023-01-31T06:16:39.093Z,2.60
2023-01-31T06:19:06.227Z,2.20
2023-01-31T06:21:33.467Z,3.00
2023-01-31T06:26:28.425Z,3.00
2023-01-31T06:31:23.345Z,3.00
2023-01-31T06:36:21.314Z,2.40
2023-01-31T06:38:52.454Z,2.80
2023-01-31T06:41:20.604Z,3.00
2023-01-31T06:48:43.766Z,2.70
2023-01-31T06:51:11.134Z,2.70
2023-01-31T06:53:38.116Z,2.50
2023-01-31T06:56:05.945Z,2.90
2023-01-31T06:58:33.802Z,2.90
2023-01-31T07:01:11.805Z,2.70
2023-01-31T07:06:07.760Z,2.50
2023-01-31T07:11:04.723Z,3.20
2023-01-31T07:13:32.518Z,3.10
2023-01-31T07:18:27.504Z,2.60
2023-01-31T07:20:55.115Z,3.20
2023-01-31T07:23:22.169Z,3.10
2023-01-31T07:25:49.473Z,3.40
2023-01-31T07:28:16.447Z,2.80
2023-01-31T07:30:43.943Z,3.20
2023-01-31T07:33:12.139Z,3.20
2023-01-31T07:35:41.464Z,3.50
2023-01-31T07:38:09.853Z,3.20
2023-01-31T07:40:40.106Z,3.70
2023-01-31T07:45:36.434Z,2.90
2023-01-31T07:48:03.718Z,3.10
2023-01-31T07:52:59.614Z,3.50
2023-01-31T07:55:27.373Z,3.10
2023-01-31T07:57:54.390Z,3.40
2023-01-31T08:00:43.871Z,3.30
2023-01-31T08:03:33.457Z,3.40
2023-01-31T08:06:11.307Z,3.50
2023-01-31T08:08:38.783Z,3.80
2023-01-31T08:11:06.591Z,3.70
2023-01-31T08:13:35.241Z,3.80
2023-01-31T08:16:07.694Z,4.10
2023-01-31T08:18:36.906Z,3.70
2023-01-31T08:21:05.358Z,4.10
2023-01-31T08:26:10.442Z,4.10
2023-01-31T08:28:38.789Z,3.60
2023-01-31T08:31:09.284Z,4.20
2023-01-31T08:33:38.348Z,4.90
2023-01-31T08:36:26.340Z,3.90
2023-01-31T08:38:54.167Z,4.50
2023-01-31T08:41:23.340Z,4.60
2023-01-31T08:46:36.678Z,4.30
2023-01-31T08:49:06.589Z,3.70
2023-01-31T08:54:01.538Z,4.20
2023-01-31T08:56:29.192Z,4.20
2023-01-31T09:01:29.103Z,4.50
2023-01-31T09:03:57.598Z,3.90
2023-01-31T09:06:27.565Z,4.60
2023-01-31T09:08:58.633Z,4.30
2023-01-31T09:11:28.846Z,4.10
2023-01-31T09:13:58.518Z,4.40
2023-01-31T09:16:26.069Z,4.70
2023-01-31T09:18:53.435Z,4.50
2023-01-31T09:21:22.021Z,4.80
2023-01-31T09:23:54.170Z,4.70
2023-01-31T09:26:21.969Z,4.40
2023-01-31T09:28:50.989Z,4.60
2023-01-31T09:31:25.455Z,5.20
2023-01-31T09:33:52.538Z,5.10
2023-01-31T09:36:21.780Z,4.60
2023-01-31T09:38:53.376Z,4.70
2023-01-31T09:41:29.951Z,5.00
2023-01-31T09:44:04.454Z,4.50
2023-01-31T09:46:56.021Z,4.90
2023-01-31T09:49:31.768Z,4.80
2023-01-31T09:52:02.151Z,4.90
2023-01-31T09:54:36.481Z,5.10
2023-01-31T09:57:12.955Z,4.90
2023-01-31T09:59:49.096Z,4.90
2023-01-31T10:02:44.379Z,5.60
2023-01-31T10:05:25.659Z,5.30
2023-01-31T10:08:11.972Z,5.80
2023-01-31T10:10:54.016Z,5.50
2023-01-31T10:13:26.651Z,5.70
2023-01-31T10:16:13.840Z,5.20
2023-01-31T10:18:49.051Z,5.50
2023-01-31T10:21:20.295Z,5.40
2023-01-31T10:23:56.369Z,5.30
2023-01-31T10:26:29.227Z,5.10
2023-01-31T10:29:36.400Z,4.80
2023-01-31T10:32:40.020Z,5.00
2023-01-31T10:35:40.625Z,5.00
2023-01-31T10:38:23.023Z,5.20
2023-01-31T10:40:58.829Z,4.90
2023-01-31T10:43:42.204Z,5.50
2023-01-31T10:46:13.255Z,5.70
2023-01-31T10:48:43.965Z,5.60
2023-01-31T10:51:34.182Z,5.70
2023-01-31T10:54:33.693Z,5.70
2023-01-31T10:57:01.539Z,5.60
2023-01-31T10:59:40.904Z,6.00
2023-01-31T11:02:22.555Z,5.60
2023-01-31T11:04:53.180Z,5.70
2023-01-31T11:07:21.518Z,6.10
2023-01-31T11:09:54.369Z,5.90
2023-01-31T11:12:39.871Z,6.20
2023-01-31T11:15:18.733Z,5.90
2023-01-31T11:17:47.637Z,5.30
2023-01-31T11:20:27.250Z,5.70
2023-01-31T11:22:57.529Z,5.80
2023-01-31T11:25:26.641Z,5.70
2023-01-31T11:27:59.059Z,5.50
2023-01-31T11:30:35.089Z,6.30
2023-01-31T11:33:02.727Z,5.60
2023-01-31T11:35:35.020Z,5.90
2023-01-31T11:38:13.555Z,5.80
2023-01-31T11:40:41.144Z,5.50
2023-01-31T11:43:17.565Z,5.40
2023-01-31T11:45:47.028Z,5.30
2023-01-31T11:48:24.899Z,5.60
2023-01-31T11:50:58.630Z,5.60
2023-01-31T11:53:49.888Z,5.60
2023-01-31T11:56:24.622Z,5.30
2023-01-31T11:58:56.205Z,5.70
2023-01-31T12:01:27.407Z,5.40
2023-01-31T12:04:04.771Z,5.40
2023-01-31T12:06:40.306Z,5.50
2023-01-31T12:09:22.117Z,5.50
2023-01-31T12:11:54.283Z,6.10
2023-01-31T12:14:25.182Z,5.50
2023-01-31T12:16:56.281Z,5.30
2023-01-31T12:19:44.010Z,5.40
2023-01-31T12:22:21.639Z,5.10
2023-01-31T12:25:12.246Z,5.20
2023-01-31T12:28:20.586Z,5.30
2023-01-31T12:31:06.036Z,5.60
2023-01-31T12:33:51.444Z,5.10
2023-01-31T12:36:27.770Z,5.00
2023-01-31T12:39:16.044Z,4.90
2023-01-31T12:42:01.492Z,5.80
2023-01-31T12:44:34.690Z,5.50
2023-01-31T12:47:32.571Z,5.20
2023-01-31T12:50:46.865Z,5.50
2023-01-31T12:53:51.228Z,5.00
2023-01-31T12:56:43.210Z,5.40
2023-01-31T12:59:44.547Z,4.90
2023-01-31T13:02:29.021Z,5.10
2023-01-31T13:05:04.300Z,5.20
2023-01-31T13:07:31.976Z,5.00
2023-01-31T13:10:03.467Z,4.90
2023-01-31T13:12:35.715Z,4.50
2023-01-31T13:15:15.867Z,5.00
2023-01-31T13:17:44.689Z,4.90
2023-01-31T13:22:57.347Z,4.60
2023-01-31T13:25:49.002Z,4.30
2023-01-31T13:28:21.317Z,4.50
2023-01-31T13:30:59.734Z,4.60
2023-01-31T13:33:36.682Z,4.70
2023-01-31T13:36:35.644Z,4.40
2023-01-31T13:39:12.481Z,5.10
2023-01-31T13:41:40.502Z,4.60
2023-01-31T13:44:13.836Z,3.90
2023-01-31T13:46:49.473Z,4.40
2023-01-31T13:49:24.925Z,4.30
2023-01-31T13:52:02.005Z,4.30
2023-01-31T13:57:04.127Z,4.20
2023-01-31T13:59:37.816Z,4.30
2023-01-31T14:02:17.663Z,4.10
2023-01-31T14:07:16.387Z,4.20
2023-01-31T14:10:09.705Z,4.00
2023-01-31T14:12:38.779Z,4.10
2023-01-31T14:15:46.368Z,4.20
2023-01-31T14:18:43.768Z,4.20
2023-01-31T14:21:29.224Z,4.50
2023-01-31T14:23:58.794Z,4.50
2023-01-31T14:26:41.996Z,3.90
2023-01-31T14:29:21.471Z,4.00
2023-01-31T14:31:50.277Z,3.80
2023-01-31T14:34:23.386Z,3.80
2023-01-31T14:37:05.503Z,3.70
2023-01-31T14:39:41.261Z,3.60
2023-01-31T14:42:49.547Z,3.80
2023-01-31T14:45:38.340Z,3.70
2023-01-31T14:48:33.183Z,3.50
2023-01-31T14:51:24.762Z,3.30
2023-01-31T14:54:16.444Z,3.30
2023-01-31T14:56:52.945Z,3.40
2023-01-31T14:59:38.908Z,3.60
2023-01-31T15:02:24.517Z,3.10
2023-01-31T15:05:02.088Z,3.20
2023-01-31T15:07:29.855Z,3.10
2023-01-31T15:09:58.044Z,3.00
2023-01-31T15:13:00.836Z,3.20
2023-01-31T15:15:38.895Z,2.70
2023-01-31T15:18:20.074Z,2.70
2023-01-31T15:20:52.523Z,2.80
2023-01-31T15:23:24.687Z,2.60
2023-01-31T15:25:53.347Z,2.40
2023-01-31T15:28:25.198Z,2.40
2023-01-31T15:30:53.661Z,2.60
2023-01-31T15:33:26.903Z,2.40
2023-01-31T15:36:00.446Z,2.50
2023-01-31T15:38:43.917Z,2.70
2023-01-31T15:41:37.914Z,2.10
2023-01-31T15:44:13.083Z,2.10
2023-01-31T15:46:43.430Z,2.30
2023-01-31T15:49:39.140Z,2.20
2023-01-31T15:52:19.745Z,2.20
2023-01-31T15:55:05.007Z,2.40
2023-01-31T15:57:46.558Z,2.20
2023-01-31T16:00:35.735Z,2.60
2023-01-31T16:03:05.444Z,2.70
2023-01-31T16:05:35.828Z,2.30
2023-01-31T16:08:35.835Z,2.10
2023-01-31T16:11:10.386Z,2.40
2023-01-31T16:13:39.735Z,2.60
2023-01-31T16:16:14.303Z,1.60
2023-01-31T16:18:49.711Z,2.90
2023-01-31T16:21:27.131Z,2.50
2023-01-31T16:24:00.104Z,2.90
2023-01-31T16:26:33.846Z,2.50
2023-01-31T16:29:15.879Z,2.80
2023-01-31T16:31:52.783Z,3.20
2023-01-31T16:34:28.876Z,2.40
2023-01-31T16:37:04.981Z,2.50
2023-01-31T16:39:48.214Z,2.70
2023-01-31T16:42:15.647Z,2.70
2023-01-31T16:44:45.997Z,2.40
2023-01-31T16:47:35.739Z,2.60
2023-01-31T16:50:22.582Z,2.90
2023-01-31T16:53:06.977Z,2.50
2023-01-31T16:55:34.024Z,2.50
2023-01-31T16:58:01.897Z,2.80
2023-01-31T17:00:35.111Z,2.40
2023-01-31T17:03:12.697Z,2.90
2023-01-31T17:05:44.222Z,2.40
2023-01-31T17:08:21.472Z,2.60
2023-01-31T17:10:49.511Z,3.50
2023-01-31T17:13:25.611Z,3.20
2023-01-31T17:15:52.865Z,2.50
2023-01-31T17:20:49.319Z,2.40
2023-01-31T17:23:18.191Z,2.20
2023-01-31T17:25:45.879Z,1.70
2023-01-31T17:28:13.305Z,2.60
2023-01-31T17:30:44.664Z,3.30
2023-01-31T17:33:14.081Z,2.50
2023-01-31T17:35:44.655Z,3.20
2023-01-31T17:38:11.964Z,2.60
2023-01-31T17:40:40.753Z,2.60
2023-01-31T17:43:12.974Z,2.30
2023-01-31T17:48:11.700Z,2.40
2023-01-31T17:50:43.472Z,2.80
2023-01-31T17:53:14.017Z,2.60
2023-01-31T17:55:44.193Z,2.70
2023-01-31T17:58:13.636Z,2.60
2023-01-31T18:00:40.969Z,2.70
2023-01-31T18:05:39.245Z,2.90
2023-01-31T18:08:07.165Z,2.50
2023-01-31T18:10:34.256Z,2.70
2023-01-31T18:13:01.622Z,2.40
2023-01-31T18:15:28.783Z,2.40
2023-01-31T18:20:24.228Z,2.80
2023-01-31T18:27:53.728Z,2.30
2023-01-31T18:37:51.339Z,2.50
2023-01-31T18:40:18.439Z,2.60
2023-01-31T18:45:13.391Z,2.80
2023-01-31T18:47:40.901Z,2.60
2023-01-31T18:50:10.270Z,2.90
2023-01-31T18:55:09.672Z,2.70
2023-01-31T19:00:05.630Z,2.80
2023-01-31T19:02:34.209Z,2.40
2023-01-31T19:05:02.161Z,2.70
2023-01-31T19:07:32.957Z,3.00
2023-01-31T19:10:00.937Z,2.60
2023-01-31T19:12:28.348Z,2.40
2023-01-31T19:14:56.484Z,2.50
2023-01-31T19:17:23.942Z,2.70
2023-01-31T19:19:53.327Z,2.50
2023-01-31T19:22:20.802Z,2.70
2023-01-31T19:24:48.112Z,2.50
2023-01-31T19:27:16.867Z,2.70
2023-01-31T19:32:15.185Z,2.50
2023-01-31T19:34:42.261Z,2.70
2023-01-31T19:37:10.970Z,3.30
2023-01-31T19:39:38.324Z,1.90
2023-01-31T19:42:07.793Z,2.50
2023-01-31T19:44:34.846Z,2.50
2023-01-31T19:52:03.531Z,2.50
2023-01-31T19:54:30.737Z,2.50
2023-01-31T19:57:01.791Z,2.70
2023-01-31T19:59:29.768Z,2.10
2023-01-31T20:01:59.611Z,2.70
2023-01-31T20:06:54.861Z,2.40
2023-01-31T20:09:22.076Z,2.20
2023-01-31T20:14:18.548Z,2.20
2023-01-31T20:19:14.557Z,2.50
2023-01-31T20:21:42.415Z,2.30
2023-01-31T20:24:09.620Z,1.90
2023-01-31T20:26:37.687Z,2.30
2023-01-31T20:34:01.586Z,2.40
2023-01-31T20:36:28.921Z,2.30
2023-01-31T20:38:56.558Z,2.10
2023-01-31T20:41:24.560Z,2.30
2023-01-31T20:43:52.246Z,2.00
2023-01-31T20:46:19.956Z,2.70
2023-01-31T20:48:47.964Z,2.50
2023-01-31T20:51:15.324Z,3.00
2023-01-31T20:53:42.421Z,2.70
2023-01-31T20:56:10.824Z,3.00
2023-01-31T20:58:39.965Z,2.30
2023-01-31T21:01:09.006Z,2.70
2023-01-31T21:03:39.052Z,2.80
2023-01-31T21:06:07.369Z,3.30
2023-01-31T21:08:37.540Z,2.70
2023-01-31T21:11:08.441Z,3.00
2023-01-31T21:13:36.887Z,2.80
2023-01-31T21:16:07.144Z,2.90
2023-01-31T21:18:37.104Z,3.10
2023-01-31T21:21:07.516Z,3.10
2023-01-31T21:23:39.998Z,2.90
2023-01-31T21:26:09.677Z,3.20
2023-01-31T21:28:37.249Z,3.30
2023-01-31T21:31:08.664Z,2.80
2023-01-31T21:33:36.270Z,3.40
2023-01-31T21:36:10.554Z,3.00
2023-01-31T21:38:41.241Z,3.30
2023-01-31T21:41:29.143Z,3.10
2023-01-31T21:43:56.927Z,3.70
2023-01-31T21:46:25.319Z,3.80
2023-01-31T21:48:52.642Z,3.10
2023-01-31T21:51:22.396Z,3.40
2023-01-31T21:53:49.441Z,3.30
2023-01-31T21:56:24.702Z,3.40
2023-01-31T21:58:57.026Z,3.40
2023-01-31T22:01:30.358Z,3.70
2023-01-31T22:03:59.196Z,3.30
2023-01-31T22:06:31.697Z,3.40
2023-01-31T22:09:00.976Z,3.40
2023-01-31T22:11:33.142Z,3.40
2023-01-31T22:14:02.416Z,3.50
2023-01-31T22:16:30.093Z,3.60
2023-01-31T22:19:00.213Z,3.60
2023-01-31T22:21:29.826Z,3.40
2023-01-31T22:23:59.251Z,3.30
2023-01-31T22:26:28.980Z,4.10
2023-01-31T22:28:58.308Z,3.70
2023-01-31T22:31:26.349Z,3.60
2023-01-31T22:33:53.535Z,3.60
2023-01-31T22:36:20.927Z,3.80
2023-01-31T22:38:48.059Z,3.70
2023-01-31T22:41:20.229Z,3.40
2023-01-31T22:43:49.823Z,3.20
2023-01-31T22:46:25.979Z,2.90
2023-01-31T22:48:54.633Z,3.60
2023-01-31T22:51:24.566Z,2.70
2023-01-31T22:53:51.695Z,2.90
2023-01-31T22:56:27.592Z,2.80
2023-01-31T22:58:56.440Z,2.90
2023-01-31T23:01:26.648Z,2.50
2023-01-31T23:03:58.808Z,2.60
2023-01-31T23:06:27.987Z,3.00
2023-01-31T23:08:56.391Z,2.60
2023-01-31T23:11:26.364Z,2.60
2023-01-31T23:13:53.457Z,2.90
2023-01-31T23:16:46.170Z,2.60
2023-01-31T23:19:14.509Z,2.40
2023-01-31T23:21:42.939Z,3.00
2023-01-31T23:24:14.696Z,2.50
2023-01-31T23:26:43.264Z,2.80
2023-01-31T23:29:10.892Z,3.20
2023-01-31T23:31:38.551Z,2.50
2023-01-31T23:34:07.413Z,2.70
2023-01-31T23:36:35.223Z,2.70
2023-01-31T23:39:02.268Z,2.50
2023-01-31T23:41:29.626Z,2.20
2023-01-31T23:43:56.567Z,2.30
2023-01-31T23:46:24.103Z,2.40
2023-01-31T23:48:51.163Z,2.40
2023-01-31T23:51:18.459Z,2.70
2023-01-31T23:53:45.430Z,2.70
2023-01-31T23:56:12.753Z,2.40
2023-01-31T23:58:39.770Z,2.60
